createdAt,value
2018-10-18T00:00:14.672Z,86.68
2018-10-18T00:01:13.253Z,86.58
2018-10-18T00:02:15.459Z,86.29
2018-10-18T00:03:14.438Z,86.54
2018-10-18T00:05:54.400Z,87.68
2018-10-18T00:06:52.392Z,87.59
2018-10-18T00:07:51.270Z,87.25
2018-10-18T00:08:51.382Z,87.49
2018-10-18T00:09:52.398Z,87.88
2018-10-18T00:10:50.477Z,87.59
2018-10-18T00:11:50.395Z,87.4
2018-10-18T00:12:47.624Z,87.98
2018-10-18T00:13:47.945Z,87.78
2018-10-18T00:14:46.220Z,88.07
2018-10-18T00:15:45.388Z,87.88
2018-10-18T00:16:44.881Z,87.49
2018-10-18T00:17:43.992Z,88.17
2018-10-18T00:18:42.624Z,88.07
2018-10-18T00:19:42.973Z,87.21
2018-10-18T00:20:42.965Z,87.59
2018-10-18T00:21:42.891Z,87.3
2018-10-18T00:22:41.441Z,87.3
2018-10-18T00:23:39.413Z,87.88
2018-10-18T00:24:38.484Z,88.07
2018-10-18T00:25:38.890Z,87.98
2018-10-18T00:26:38.405Z,87.4
2018-10-18T00:27:40.393Z,88.07
2018-10-18T00:30:20.539Z,87.3
2018-10-18T00:31:20.400Z,87.15
2018-10-18T00:32:21.403Z,87.49
2018-10-18T00:33:20.023Z,87.59
2018-10-18T00:34:19.392Z,87.82
2018-10-18T00:37:01.163Z,87.4
2018-10-18T00:38:00.511Z,87.78
2018-10-18T00:39:00.446Z,87.78
2018-10-18T00:39:59.748Z,87.49
2018-10-18T00:41:59.367Z,88.07
2018-10-18T00:42:59.334Z,87.98
2018-10-18T00:43:58.858Z,87.98
2018-10-18T00:44:57.317Z,88.07
2018-10-18T00:45:57.887Z,87.78
2018-10-18T00:46:57.329Z,87.68
2018-10-18T00:47:56.382Z,87.78
2018-10-18T00:48:55.838Z,87.88
2018-10-18T00:49:55.846Z,87.98
2018-10-18T00:50:53.728Z,87.49
2018-10-18T00:51:52.828Z,88.74
2018-10-18T00:52:51.328Z,88.84
2018-10-18T00:53:50.108Z,88.93
2018-10-18T00:54:48.752Z,88.74
2018-10-18T00:55:47.377Z,88.93
2018-10-18T00:56:47.643Z,89.18
2018-10-18T00:57:46.902Z,89.08
2018-10-18T00:58:46.355Z,89.37
2018-10-18T00:59:48.822Z,89.27
2018-10-18T01:00:54.073Z,90.33
2018-10-18T01:03:35.834Z,90.04
2018-10-18T01:04:38.354Z,89.65
2018-10-18T01:05:36.838Z,89.56
2018-10-18T01:06:34.416Z,89.85
2018-10-18T01:07:33.822Z,89.65
2018-10-18T01:08:32.544Z,89.37
2018-10-18T01:09:32.525Z,88.98
2018-10-18T01:10:31.906Z,89.18
2018-10-18T01:11:30.491Z,88.89
2018-10-18T01:12:29.764Z,89.08
2018-10-18T01:13:28.101Z,88.65
2018-10-18T01:14:27.596Z,89.03
2018-10-18T01:15:27.192Z,88.26
2018-10-18T01:16:25.783Z,88.45
2018-10-18T01:17:26.083Z,88.17
2018-10-18T01:21:08.464Z,88.55
2018-10-18T01:22:08.334Z,88.55
2018-10-18T01:23:07.314Z,88.55
2018-10-18T01:24:07.387Z,88.65
2018-10-18T01:25:06.862Z,88.84
2018-10-18T01:26:05.584Z,88.07
2018-10-18T01:27:04.125Z,88.65
2018-10-18T01:28:03.246Z,88.55
2018-10-18T01:29:01.798Z,88.65
2018-10-18T01:49:15.337Z,88.26
2018-10-18T01:50:14.115Z,88.26
2018-10-18T01:51:12.738Z,88.84
2018-10-18T01:52:14.128Z,88.45
2018-10-18T01:53:12.938Z,87.98
2018-10-18T01:54:14.235Z,87.78
2018-10-18T01:55:14.365Z,87.68
2018-10-18T01:56:15.161Z,88.17
2018-10-18T01:57:15.353Z,88.17
2018-10-18T01:58:13.041Z,87.68
2018-10-18T01:59:12.849Z,88.26
2018-10-18T02:00:10.893Z,87.68
2018-10-18T02:02:51.250Z,87.49
2018-10-18T02:03:51.376Z,87.98
2018-10-18T02:04:52.851Z,87.78
2018-10-18T02:05:52.378Z,88.31
2018-10-18T02:06:52.438Z,87.68
2018-10-18T02:07:52.401Z,87.78
2018-10-18T02:08:52.381Z,87.98
2018-10-18T02:09:52.854Z,87.64
2018-10-18T02:10:51.234Z,88.6
2018-10-18T02:11:49.798Z,88.31
2018-10-18T02:14:30.955Z,89.37
2018-10-18T02:15:32.850Z,89.08
2018-10-18T02:16:29.919Z,89.08
2018-10-18T02:17:30.851Z,89.08
2018-10-18T02:18:28.631Z,89.32
2018-10-18T02:21:09.391Z,89.18
2018-10-18T02:22:08.168Z,89.18
2018-10-18T02:23:07.366Z,88.98
2018-10-18T02:24:06.954Z,88.89
2018-10-18T02:25:04.880Z,88.51
2018-10-18T02:26:04.938Z,88.31
2018-10-18T02:28:46.866Z,88.51
2018-10-18T02:29:46.370Z,88.6
2018-10-18T02:30:44.414Z,89.04
2018-10-18T02:31:42.898Z,88.79
2018-10-18T02:32:42.861Z,88.79
2018-10-18T02:33:41.638Z,88.22
2018-10-18T02:34:41.652Z,88.31
2018-10-18T02:35:41.867Z,88.51
2018-10-18T02:36:40.375Z,88.51
2018-10-18T02:37:38.870Z,88.41
2018-10-18T02:38:37.373Z,88.51
2018-10-18T02:39:36.878Z,88.41
2018-10-18T02:40:35.378Z,88.12
2018-10-18T02:41:33.862Z,88.7
2018-10-18T02:42:32.392Z,88.7
2018-10-18T02:43:31.101Z,88.02
2018-10-18T02:44:30.949Z,88.41
2018-10-18T02:45:30.882Z,88.31
2018-10-18T02:46:30.864Z,87.64
2018-10-18T02:47:29.559Z,87.64
2018-10-18T02:48:28.903Z,87.45
2018-10-18T02:49:30.471Z,87.26
2018-10-18T02:50:30.690Z,87.55
2018-10-18T02:51:30.866Z,87.35
2018-10-18T02:52:28.403Z,87.26
2018-10-18T02:53:27.235Z,87.26
2018-10-18T02:54:27.157Z,87.21
2018-10-18T02:55:27.396Z,87.26
2018-10-18T02:56:26.076Z,87.26
2018-10-18T02:57:26.867Z,86.93
2018-10-18T02:58:24.729Z,87.07
2018-10-18T03:01:07.875Z,86.58
2018-10-18T03:02:05.585Z,87.5
2018-10-18T03:03:05.371Z,87.41
2018-10-18T03:04:04.369Z,87.12
2018-10-18T03:05:04.896Z,87.21
2018-10-18T03:06:05.414Z,87.02
2018-10-18T03:07:04.958Z,87.31
2018-10-18T03:08:05.899Z,87.31
2018-10-18T03:09:04.918Z,86.93
2018-10-18T03:10:03.487Z,87.12
2018-10-18T03:12:45.397Z,87.35
2018-10-18T03:13:44.050Z,87.41
2018-10-18T03:14:42.547Z,87.02
2018-10-18T03:15:41.887Z,87.7
2018-10-18T03:16:40.411Z,87.98
2018-10-18T03:17:41.380Z,87.88
2018-10-18T03:18:39.348Z,87.31
2018-10-18T03:19:38.388Z,87.07
2018-10-18T03:20:36.950Z,87.26
2018-10-18T03:21:37.919Z,87.26
2018-10-18T03:22:36.918Z,87.02
2018-10-18T03:23:35.449Z,87.7
2018-10-18T03:24:34.525Z,87.5
2018-10-18T03:26:51.309Z,88.56
2018-10-18T03:27:51.652Z,88.56
2018-10-18T03:28:51.134Z,88.51
2018-10-18T03:29:50.373Z,89.23
2018-10-18T03:30:48.974Z,88.94
2018-10-18T03:31:56.065Z,88.65
2018-10-18T03:32:58.279Z,88.46
2018-10-18T03:33:56.038Z,88.75
2018-10-18T03:34:55.868Z,88.46
2018-10-18T03:35:55.839Z,88.56
2018-10-18T03:36:53.892Z,87.98
2018-10-18T03:37:52.450Z,88.17
2018-10-18T03:38:52.775Z,88.27
2018-10-18T03:39:51.300Z,88.75
2018-10-18T03:40:49.774Z,88.65
2018-10-18T03:41:49.339Z,88.17
2018-10-18T03:42:47.570Z,88.65
2018-10-18T03:43:47.852Z,88.27
2018-10-18T03:44:46.298Z,88.27
2018-10-18T03:45:45.052Z,88.9
2018-10-18T03:46:44.563Z,89.13
2018-10-18T03:47:44.510Z,89.09
2018-10-18T03:48:44.483Z,89.76
2018-10-18T03:49:43.108Z,89.76
2018-10-18T03:50:41.678Z,89.57
2018-10-18T03:51:41.783Z,89.32
2018-10-18T03:52:40.791Z,89.37
2018-10-18T03:53:39.455Z,89.57
2018-10-18T03:54:40.791Z,89.47
2018-10-18T03:55:38.063Z,89.04
2018-10-18T03:56:36.717Z,89.13
2018-10-18T03:57:36.788Z,88.94
2018-10-18T03:58:41.790Z,89.09
2018-10-18T03:59:40.662Z,88.8
2018-10-18T04:00:39.182Z,89.28
2018-10-18T04:01:40.592Z,89.76
2018-10-18T04:02:39.316Z,89.86
2018-10-18T04:03:38.589Z,89.28
2018-10-18T04:04:39.287Z,89.76
2018-10-18T04:05:37.081Z,90.53
2018-10-18T04:06:35.649Z,90.33
2018-10-18T04:07:34.834Z,90.05
2018-10-18T04:08:34.295Z,89.86
2018-10-18T04:09:34.316Z,90.14
2018-10-18T04:10:33.293Z,89.66
2018-10-18T04:11:32.299Z,89.95
2018-10-18T04:12:30.882Z,90.05
2018-10-18T04:15:10.416Z,90.05
2018-10-18T04:16:09.178Z,89.95
2018-10-18T04:17:08.792Z,90.14
2018-10-18T04:18:07.018Z,90.43
2018-10-18T04:19:05.423Z,90.53
2018-10-18T04:20:04.602Z,90.53
2018-10-18T04:21:03.178Z,90.53
2018-10-18T04:22:02.662Z,90.62
2018-10-18T04:23:02.095Z,90.72
2018-10-18T04:30:29.866Z,90.05
2018-10-18T04:31:28.063Z,90.53
2018-10-18T04:32:26.615Z,90.72
2018-10-18T04:33:25.902Z,90.53
2018-10-18T04:34:25.809Z,90.53
2018-10-18T04:35:25.327Z,90.72
2018-10-18T04:36:24.809Z,90.43
2018-10-18T04:37:23.429Z,90.53
2018-10-18T04:38:22.304Z,90.81
2018-10-18T04:39:21.303Z,90.33
2018-10-18T04:40:21.132Z,90.77
2018-10-18T04:41:20.339Z,91.82
2018-10-18T04:42:22.855Z,91.77
2018-10-18T04:43:21.330Z,91.67
2018-10-18T04:44:19.811Z,91.19
2018-10-18T04:45:17.747Z,90.53
2018-10-18T04:46:19.358Z,90.72
2018-10-18T04:47:17.925Z,90.81
2018-10-18T04:48:17.883Z,90.33
2018-10-18T04:49:18.504Z,91.49
2018-10-18T04:50:17.974Z,91.49
2018-10-18T04:51:17.475Z,91.15
2018-10-18T04:52:17.811Z,91.1
2018-10-18T04:53:16.454Z,91.29
2018-10-18T04:54:15.201Z,91.72
2018-10-18T04:55:13.845Z,91.44
2018-10-18T04:56:13.206Z,91.49
2018-10-18T04:57:16.076Z,91.1
2018-10-18T04:58:16.807Z,91.34
2018-10-18T04:59:16.805Z,91.77
2018-10-18T05:00:16.151Z,91.82
2018-10-18T05:01:16.993Z,91.92
2018-10-18T05:02:15.341Z,92.21
2018-10-18T05:03:16.341Z,91.82
2018-10-18T05:04:15.032Z,92.3
2018-10-18T05:05:13.646Z,92.01
2018-10-18T05:06:13.873Z,91.63
2018-10-18T05:07:13.358Z,91.82
2018-10-18T05:08:14.443Z,92.01
2018-10-18T05:09:13.746Z,91.96
2018-10-18T05:11:54.823Z,91.72
2018-10-18T05:12:53.870Z,91.63
2018-10-18T05:13:52.873Z,91.77
2018-10-18T05:16:32.825Z,91.67
2018-10-18T05:19:13.463Z,92.25
2018-10-18T05:20:12.826Z,92.06
2018-10-18T05:21:10.877Z,93.73
2018-10-18T05:22:10.471Z,93.26
2018-10-18T05:23:10.525Z,93.63
2018-10-18T05:41:07.917Z,99.99
2018-10-18T05:42:07.532Z,99.73
2018-10-18T05:43:06.065Z,99.99
2018-10-18T05:44:06.859Z,95.41
2018-10-18T05:45:05.446Z,93.01
2018-10-18T05:46:05.825Z,92.2
2018-10-18T05:47:04.557Z,91.43
2018-10-18T05:48:03.273Z,91.72
2018-10-18T05:49:02.750Z,91.43
2018-10-18T05:50:01.369Z,91.05
2018-10-18T05:51:02.825Z,90.81
2018-10-18T05:52:00.845Z,90.81
2018-10-18T05:52:58.493Z,90.14
2018-10-18T05:53:58.502Z,89.37
2018-10-18T05:54:57.354Z,89.65
2018-10-18T05:55:57.806Z,89.37
2018-10-18T05:56:57.349Z,89.94
2018-10-18T05:57:56.360Z,89.47
2018-10-18T05:58:54.910Z,89.08
2018-10-18T05:59:54.941Z,89.04
2018-10-18T06:00:54.883Z,89.18
2018-10-18T06:01:54.506Z,89.08
2018-10-18T06:02:54.926Z,89.27
2018-10-18T06:03:54.933Z,89.56
2018-10-18T06:07:35.929Z,99.99
2018-10-18T06:08:34.723Z,99.99
2018-10-18T06:09:41.334Z,98.91
2018-10-18T06:10:39.604Z,95.36
2018-10-18T06:11:39.392Z,92.92
2018-10-18T06:12:38.053Z,99.99
2018-10-18T06:13:40.865Z,96.84
2018-10-18T06:14:39.631Z,99.99
2018-10-18T06:15:41.851Z,96.47
2018-10-18T06:16:40.356Z,95.51
2018-10-18T06:17:38.272Z,99.99
2018-10-18T06:18:38.351Z,99.99
2018-10-18T06:19:37.314Z,99.99
2018-10-18T06:20:36.872Z,96.47
2018-10-18T06:21:36.838Z,95.6
2018-10-18T06:22:34.878Z,95.51
2018-10-18T06:23:35.350Z,99.99
2018-10-18T06:24:33.777Z,99.99
2018-10-18T06:27:13.965Z,99.99
2018-10-18T06:28:12.724Z,99.99
2018-10-18T06:29:12.827Z,99.99
2018-10-18T06:30:13.380Z,99.99
2018-10-18T06:32:53.360Z,99.99
2018-10-18T06:33:52.897Z,99.99
2018-10-18T06:34:51.101Z,99.99
2018-10-18T06:35:51.355Z,99.99
2018-10-18T06:36:49.843Z,96.94
2018-10-18T06:37:48.624Z,96.08
2018-10-18T06:38:49.853Z,95.84
2018-10-18T06:39:48.849Z,93.83
2018-10-18T06:40:46.371Z,93.49
2018-10-18T06:41:47.317Z,92.34
2018-10-18T06:42:46.527Z,91.19
2018-10-18T06:43:45.855Z,89.85
2018-10-18T06:44:51.352Z,90.08
2018-10-18T06:45:48.856Z,89.22
2018-10-18T06:46:47.669Z,88.93
2018-10-18T06:47:47.092Z,87.88
2018-10-18T06:48:45.501Z,87.98
2018-10-18T06:49:45.538Z,88.07
2018-10-18T06:50:46.963Z,87.68
2018-10-18T06:51:46.563Z,87.68
2018-10-18T06:52:45.969Z,87.4
2018-10-18T06:53:44.611Z,87.11
2018-10-18T06:59:05.506Z,87.15
2018-10-18T07:00:04.870Z,86.34
2018-10-18T07:01:03.410Z,87.11
2018-10-18T07:02:03.857Z,86.92
2018-10-18T07:03:01.186Z,99.99
2018-10-18T07:04:01.875Z,99.99
2018-10-18T07:05:00.855Z,99.99
2018-10-18T07:06:00.948Z,99.99
2018-10-18T07:09:39.323Z,99.99
2018-10-18T07:11:41.705Z,99.99
2018-10-18T07:12:42.441Z,94.84
2018-10-18T07:13:42.925Z,93.49
2018-10-18T07:14:50.417Z,93.25
2018-10-18T07:15:47.903Z,99.99
2018-10-18T07:16:47.425Z,99.99
2018-10-18T07:17:45.356Z,99.99
2018-10-18T07:18:45.435Z,99.99
2018-10-18T07:19:44.526Z,96.99
2018-10-18T07:20:43.061Z,99.99
2018-10-18T07:21:45.237Z,99.99
2018-10-18T07:24:25.868Z,99.99
2018-10-18T07:25:29.828Z,99.99
2018-10-18T07:30:22.757Z,99.58
2018-10-18T07:31:15.131Z,92.57
2018-10-18T07:32:13.707Z,90.37
2018-10-18T07:33:12.637Z,88.93
2018-10-18T07:34:13.618Z,88.73
2018-10-18T07:35:15.650Z,89.02
2018-10-18T07:37:14.173Z,97.09
2018-10-18T07:38:13.021Z,96.7
2018-10-18T07:39:12.622Z,99.99
2018-10-18T07:40:13.019Z,99.99
2018-10-18T07:41:11.774Z,99.99
2018-10-18T07:42:11.142Z,97.14
2018-10-18T07:43:11.637Z,98.24
2018-10-18T07:44:09.661Z,99.99
2018-10-18T07:45:09.153Z,98.96
2018-10-18T07:46:09.662Z,91.52
2018-10-18T07:47:07.853Z,97.81
2018-10-18T07:48:08.269Z,90.99
2018-10-18T07:49:07.125Z,89.16
2018-10-18T07:50:11.242Z,87.72
2018-10-18T07:51:09.951Z,87.15
2018-10-18T07:52:10.628Z,86.85
2018-10-18T07:53:08.323Z,86.28
2018-10-18T07:54:08.935Z,85.22
2018-10-18T07:55:09.636Z,85.61
2018-10-18T07:56:10.296Z,85.32
2018-10-18T07:57:08.982Z,84.45
2018-10-18T07:58:09.140Z,85.03
2018-10-18T07:59:07.738Z,84.64
2018-10-18T08:00:05.652Z,85.71
2018-10-18T08:01:05.141Z,87.24
2018-10-18T08:02:04.579Z,88.87
2018-10-18T08:03:05.577Z,88.39
2018-10-18T08:04:04.371Z,87.05
2018-10-18T08:05:03.260Z,87.82
2018-10-18T08:06:02.741Z,89.69
2018-10-18T08:07:01.728Z,88.73
2018-10-18T08:08:07.553Z,86.71
2018-10-18T08:10:52.684Z,84.21
2018-10-18T08:11:51.727Z,83.4
2018-10-18T08:12:50.256Z,84.36
2018-10-18T08:13:49.703Z,83.78
2018-10-18T08:14:50.224Z,84.84
2018-10-18T08:15:52.174Z,85.71
2018-10-18T08:16:50.680Z,83.64
2018-10-18T08:21:14.644Z,85.57
2018-10-18T08:22:13.658Z,85.13
2018-10-18T08:23:12.870Z,84.45
2018-10-18T08:24:11.749Z,95.89
2018-10-18T08:25:11.872Z,96.85
2018-10-18T08:26:11.789Z,97.91
2018-10-18T08:27:11.275Z,92.14
2018-10-18T08:28:10.790Z,87.19
2018-10-18T08:30:59.847Z,88.45
2018-10-18T08:31:59.262Z,87.15
2018-10-18T08:32:59.759Z,84.07
2018-10-18T08:42:38.716Z,88.63
2018-10-18T08:43:40.455Z,91.42
2018-10-18T08:44:38.597Z,96.75
2018-10-18T08:45:38.516Z,93.77
2018-10-18T08:46:38.171Z,94.73
2018-10-18T08:47:39.121Z,85.65
2018-10-18T08:48:39.402Z,84.21
2018-10-18T08:50:39.515Z,85.46
2018-10-18T08:51:38.933Z,84.88
2018-10-18T08:52:39.409Z,83.73
2018-10-18T08:53:38.418Z,83.06
2018-10-18T08:54:36.150Z,81.23
2018-10-18T08:55:36.510Z,82.53
2018-10-18T08:56:34.235Z,87.29
2018-10-18T08:57:33.923Z,94.3
2018-10-18T08:58:33.857Z,90.55
2018-10-18T08:59:34.424Z,88.97
2018-10-18T09:00:32.476Z,99.99
2018-10-18T09:01:33.154Z,92.67
2018-10-18T09:02:34.473Z,99.01
2018-10-18T09:03:33.928Z,95.21
2018-10-18T09:04:31.951Z,88.63
2018-10-18T09:05:30.496Z,85.55
2018-10-18T09:06:31.012Z,85.5
2018-10-18T09:07:31.055Z,84.16
2018-10-18T09:11:10.947Z,98
2018-10-18T09:12:09.940Z,98.54
2018-10-18T09:13:08.978Z,95.6
2018-10-18T09:14:07.490Z,87.71
2018-10-18T09:15:08.425Z,86.52
2018-10-18T09:16:07.112Z,89.15
2018-10-18T09:17:05.099Z,88.82
2018-10-18T09:18:04.428Z,91.17
2018-10-18T09:19:05.073Z,84.84
2018-10-18T09:20:03.295Z,85.55
2018-10-18T09:21:03.430Z,85.17
2018-10-18T09:22:01.729Z,85.17
2018-10-18T09:23:01.367Z,85.4
2018-10-18T09:24:00.868Z,84.54
2018-10-18T09:25:00.484Z,83.77
2018-10-18T09:25:58.908Z,84.06
2018-10-18T09:26:58.690Z,83
2018-10-18T09:27:58.424Z,83.81
2018-10-18T09:28:56.366Z,82.56
2018-10-18T09:30:00.578Z,82.94
2018-10-18T09:30:58.950Z,82.75
2018-10-18T09:32:00.436Z,83.09
2018-10-18T09:35:40.936Z,83.14
2018-10-18T09:36:39.679Z,82.65
2018-10-18T09:39:20.046Z,82.42
2018-10-18T09:40:20.447Z,82.71
2018-10-18T09:41:19.933Z,82.65
2018-10-18T09:44:01.943Z,82.61
2018-10-18T09:45:00.807Z,84.34
2018-10-18T09:46:00.906Z,84.58
2018-10-18T09:46:59.656Z,83.23
2018-10-18T09:47:58.943Z,83.33
2018-10-18T09:48:58.101Z,83.52
2018-10-18T09:49:59.955Z,92.08
2018-10-18T09:50:58.990Z,97.28
2018-10-18T09:52:00.065Z,97.38
2018-10-18T09:53:00.066Z,88.43
2018-10-18T09:54:01.946Z,85.69
2018-10-18T09:55:00.979Z,86.18
2018-10-18T09:56:00.826Z,91.13
2018-10-18T09:57:00.495Z,91.13
2018-10-18T10:04:15.038Z,84.91
2018-10-18T10:22:06.653Z,82.41
2018-10-18T10:23:09.620Z,82.41
2018-10-18T10:24:07.178Z,83.8
2018-10-18T10:25:08.383Z,83.61
2018-10-18T10:26:10.679Z,82.74
2018-10-18T10:27:10.537Z,82.7
2018-10-18T10:28:10.611Z,84.28
2018-10-18T10:29:12.918Z,87.17
2018-10-18T10:30:13.157Z,88.9
2018-10-18T10:31:11.347Z,96.7
2018-10-18T10:32:10.689Z,90.44
2018-10-18T10:33:08.786Z,86.73
2018-10-18T10:34:08.440Z,84.47
2018-10-18T10:35:08.111Z,85.72
2018-10-18T10:36:08.147Z,91.6
2018-10-18T10:37:07.740Z,90.25
2018-10-18T10:38:07.358Z,91.06
2018-10-18T10:39:08.233Z,91.64
2018-10-18T10:40:09.332Z,90.39
2018-10-18T10:41:09.697Z,92.22
2018-10-18T10:48:30.588Z,89.39
2018-10-18T11:35:57.646Z,80.66
2018-10-18T11:36:57.961Z,80.18
2018-10-18T11:37:57.915Z,79.11
2018-10-18T11:38:57.895Z,79.31
2018-10-18T11:39:56.868Z,79.02
2018-10-18T11:40:55.940Z,78.92
2018-10-18T12:35:03.651Z,85.96
2018-10-18T12:39:00.167Z,92.51
2018-10-18T12:40:00.761Z,90.3
2018-10-18T12:41:02.433Z,85.09
2018-10-18T12:43:42.769Z,91.45
2018-10-18T12:44:40.513Z,85.77
2018-10-18T12:45:40.630Z,84.61
2018-10-18T12:46:40.094Z,85.67
2018-10-18T12:47:40.308Z,89.37
2018-10-18T12:48:39.810Z,85.09
2018-10-18T12:49:40.321Z,87.12
2018-10-18T12:50:38.163Z,87.3
2018-10-18T12:51:39.270Z,81.24
2018-10-18T12:52:38.770Z,79.79
2018-10-18T12:53:38.262Z,79.02
2018-10-18T12:54:40.414Z,78.92
2018-10-18T12:55:39.793Z,79.06
2018-10-18T12:56:38.762Z,78.77
2018-10-18T12:57:39.780Z,78.58
2018-10-18T12:58:38.241Z,78.09
2018-10-18T13:01:04.272Z,77.67
2018-10-18T13:02:05.815Z,77.51
2018-10-18T13:03:05.002Z,77.81
2018-10-18T13:04:04.911Z,77.51
2018-10-18T13:05:04.466Z,77.51
2018-10-18T13:06:05.245Z,77.51
2018-10-18T13:07:04.825Z,77.51
2018-10-18T13:08:03.234Z,77.42
2018-10-18T13:09:03.317Z,77.33
2018-10-18T13:10:01.239Z,76.84
2018-10-18T13:11:02.770Z,76.84
2018-10-18T13:12:00.842Z,76.65
2018-10-18T13:13:00.377Z,76.36
2018-10-18T13:13:58.516Z,75.88
2018-10-18T13:14:57.370Z,75.4
2018-10-18T13:17:38.786Z,75.68
2018-10-18T13:18:38.294Z,75.1
2018-10-18T13:19:36.178Z,75.3
2018-10-18T13:20:35.280Z,75.4
2018-10-18T13:21:34.363Z,75.3
2018-10-18T13:22:33.256Z,75.88
2018-10-18T13:23:32.387Z,75.3
2018-10-18T13:24:30.434Z,75.3
2018-10-18T13:25:29.827Z,75.49
2018-10-18T13:26:30.779Z,75.4
2018-10-18T13:27:28.280Z,75.68
2018-10-18T13:28:27.724Z,75.59
2018-10-18T13:29:27.554Z,75.3
2018-10-18T13:30:27.308Z,75.68
2018-10-18T13:31:29.576Z,75.49
2018-10-18T13:32:28.818Z,75.68
2018-10-18T13:33:27.069Z,75.49
2018-10-18T13:34:25.692Z,75.3
2018-10-18T13:35:28.870Z,75.2
2018-10-18T13:46:34.647Z,74.95
2018-10-18T13:47:34.303Z,74.85
2018-10-18T13:48:34.427Z,74.76
2018-10-18T13:49:33.374Z,74.66
2018-10-18T13:50:33.792Z,75.05
2018-10-18T13:51:33.386Z,74.76
2018-10-18T13:52:32.887Z,74.95
2018-10-18T13:53:31.494Z,75.24
2018-10-18T13:54:30.856Z,75.05
2018-10-18T13:55:31.018Z,75.62
2018-10-18T13:56:29.893Z,75.34
2018-10-18T13:57:32.389Z,75.72
2018-10-18T13:58:30.183Z,75.92
2018-10-18T13:59:29.901Z,75.24
2018-10-18T14:00:28.807Z,75.82
2018-10-18T14:01:28.795Z,75.82
2018-10-18T14:02:30.296Z,75.62
2018-10-18T14:03:27.747Z,75.43
2018-10-18T14:04:27.137Z,75.62
2018-10-18T14:05:27.311Z,76.5
2018-10-18T14:06:27.349Z,75.53
2018-10-18T14:07:24.786Z,74.85
2018-10-18T14:08:24.474Z,74.85
2018-10-18T14:09:23.680Z,74.82
2018-10-18T14:10:23.322Z,74.76
2018-10-18T14:11:23.674Z,74.27
2018-10-18T14:12:22.280Z,74.76
2018-10-18T14:13:21.801Z,74.47
2018-10-18T14:14:21.308Z,74.95
2018-10-18T14:15:19.482Z,74.85
2018-10-18T14:16:18.122Z,74.76
2018-10-18T14:17:17.692Z,74.95
2018-10-18T14:18:16.811Z,74.27
2018-10-18T14:19:17.720Z,74.27
2018-10-18T14:20:17.078Z,74.57
2018-10-18T14:21:29.809Z,74.95
2018-10-18T14:22:29.473Z,75.43
2018-10-18T14:23:28.236Z,75.43
2018-10-18T14:24:28.390Z,75.82
2018-10-18T14:25:26.170Z,76.01
2018-10-18T14:26:28.808Z,76.1
2018-10-18T14:27:29.346Z,76.1
2018-10-18T14:28:28.817Z,75.72
2018-10-18T14:29:26.808Z,75.88
2018-10-18T14:30:26.767Z,75.72
2018-10-18T14:31:28.550Z,76.3
2018-10-18T14:32:28.465Z,76.65
2018-10-18T14:33:28.310Z,76.4
2018-10-18T14:34:26.609Z,76.59
2018-10-18T14:35:25.933Z,76.4
2018-10-18T14:36:25.370Z,76.5
2018-10-18T14:37:24.836Z,76.4
2018-10-18T14:38:22.725Z,76.3
2018-10-18T14:39:21.287Z,76.4
2018-10-18T14:40:19.886Z,76.17
2018-10-18T14:41:18.685Z,75.92
2018-10-18T14:44:00.948Z,76.36
2018-10-18T14:44:59.081Z,75.72
2018-10-18T14:45:57.832Z,75.72
2018-10-18T14:46:57.353Z,75.97
2018-10-18T14:47:57.899Z,76.36
2018-10-18T14:48:56.911Z,76.2
2018-10-18T14:49:57.424Z,76.2
2018-10-18T14:51:04.834Z,76.2
2018-10-18T14:52:04.403Z,75.82
2018-10-18T14:53:04.365Z,76.4
2018-10-18T14:54:02.882Z,76.1
2018-10-18T14:55:04.529Z,76.2
2018-10-18T14:56:03.142Z,75.82
2018-10-18T14:57:02.652Z,76.26
2018-10-18T14:58:02.328Z,76.17
2018-10-18T14:59:04.890Z,76.36
2018-10-18T15:00:04.828Z,76.2
2018-10-18T15:01:04.824Z,76.17
2018-10-18T15:03:44.433Z,76.65
2018-10-18T15:04:43.930Z,76.98
2018-10-18T15:05:44.018Z,76.84
2018-10-18T15:06:42.535Z,76.36
2018-10-18T15:07:41.912Z,77.23
2018-10-18T15:08:41.833Z,77.03
2018-10-18T15:09:40.164Z,77.42
2018-10-18T15:10:41.921Z,77.33
2018-10-18T15:11:41.333Z,77.61
2018-10-18T15:12:39.866Z,78
2018-10-18T15:13:38.633Z,77.9
2018-10-18T15:14:38.339Z,77.9
2018-10-18T15:15:54.555Z,77.9
2018-10-18T15:16:46.378Z,78.29
2018-10-18T15:17:46.562Z,78.29
2018-10-18T15:18:47.848Z,78.29
2018-10-18T15:19:47.364Z,79.06
2018-10-18T15:20:45.282Z,79.25
2018-10-18T15:21:44.036Z,79.06
2018-10-18T15:22:43.326Z,79.83
2018-10-18T15:23:42.191Z,79.93
2018-10-18T15:24:42.408Z,79.83
2018-10-18T15:25:42.011Z,80.31
2018-10-18T15:26:42.005Z,80.02
2018-10-18T15:27:41.166Z,80.31
2018-10-18T15:28:40.407Z,80.51
2018-10-18T15:29:40.365Z,80.12
2018-10-18T15:30:38.065Z,80.12
2018-10-18T15:31:36.737Z,80.31
2018-10-18T15:32:44.120Z,80.89
2018-10-18T15:33:46.586Z,80.46
2018-10-18T15:34:45.860Z,80.85
2018-10-18T15:35:45.451Z,81.27
2018-10-18T15:36:44.863Z,81.27
2018-10-18T15:37:44.434Z,80.89
2018-10-18T15:38:43.889Z,81.27
2018-10-18T15:39:43.902Z,81.66
2018-10-18T15:40:42.640Z,81.43
2018-10-18T15:41:41.534Z,81.57
2018-10-18T15:42:41.723Z,81.76
2018-10-18T15:43:42.867Z,81.66
2018-10-18T15:44:42.418Z,81.47
2018-10-18T15:45:41.024Z,82.49
2018-10-18T15:46:40.857Z,81.81
2018-10-18T15:47:38.232Z,81.72
2018-10-18T15:48:38.347Z,82.59
2018-10-18T15:49:35.646Z,82.59
2018-10-18T15:50:35.348Z,82.1
2018-10-18T15:51:37.498Z,82.39
2018-10-18T15:52:37.916Z,82.39
2018-10-18T15:53:35.883Z,82.97
2018-10-18T15:54:36.937Z,82.97
2018-10-18T15:55:34.965Z,83.16
2018-10-18T15:56:34.950Z,82.97
2018-10-18T15:57:36.357Z,83.07
2018-10-18T15:58:34.954Z,83.16
2018-10-18T15:59:33.652Z,83.07
2018-10-18T16:00:32.866Z,82.87
2018-10-18T16:01:30.899Z,82.68
2018-10-18T16:02:30.698Z,82.78
2018-10-18T16:14:24.834Z,83.99
2018-10-18T16:23:15.406Z,85.34
2018-10-18T16:24:19.323Z,85.53
2018-10-18T16:25:19.279Z,85.43
2018-10-18T16:26:18.557Z,85.05
2018-10-18T16:30:02.824Z,85.43
2018-10-18T16:32:03.339Z,85.91
2018-10-18T16:34:43.794Z,86.59
2018-10-18T16:35:43.782Z,86.69
2018-10-18T16:36:43.015Z,86.26
2018-10-18T16:37:41.790Z,86.74
2018-10-18T16:38:42.797Z,86.83
2018-10-18T16:39:42.807Z,86.65
2018-10-18T16:43:09.351Z,87.41
2018-10-18T16:44:08.968Z,87.41
2018-10-18T16:45:07.850Z,87.32
2018-10-18T16:46:07.103Z,87.32
2018-10-18T16:47:08.299Z,87.22
2018-10-18T16:48:06.687Z,87.9
2018-10-18T16:49:08.295Z,87.51
2018-10-18T16:50:07.072Z,87.6
2018-10-18T16:51:05.827Z,88.38
2018-10-18T16:52:04.937Z,88.18
2018-10-18T16:53:05.154Z,88.14
2018-10-18T17:01:48.621Z,88.71
2018-10-18T17:03:48.025Z,88.71
2018-10-18T17:04:49.806Z,88.71
2018-10-18T17:14:29.971Z,89.39
2018-10-18T17:22:19.954Z,89.49
2018-10-18T17:23:13.556Z,89.64
2018-10-18T17:24:13.256Z,89.64
2018-10-18T17:25:12.872Z,89.29
2018-10-18T17:26:10.905Z,89.54
2018-10-18T17:27:11.390Z,89.39
2018-10-18T17:28:10.896Z,89.78
2018-10-18T17:29:10.592Z,89.54
2018-10-18T17:30:09.888Z,90.31
2018-10-18T17:33:50.776Z,90.31
2018-10-18T17:34:51.091Z,90.31
2018-10-18T17:35:49.773Z,90.5
2018-10-18T17:36:51.061Z,90.5
2018-10-18T17:37:50.330Z,90.5
2018-10-18T17:38:49.264Z,90.21
2018-10-18T17:39:48.506Z,90.89
2018-10-18T17:40:48.720Z,90.98
2018-10-18T17:41:50.577Z,90.98
2018-10-18T17:42:50.582Z,90.89
2018-10-18T17:47:14.699Z,90.89
2018-10-18T17:48:14.649Z,91.27
2018-10-18T17:49:15.085Z,90.59
2018-10-18T17:51:52.511Z,90.89
2018-10-18T17:54:17.182Z,91.08
2018-10-18T17:55:16.182Z,90.98
2018-10-18T17:58:02.599Z,90.84
2018-10-18T17:59:01.982Z,91.08
2018-10-18T18:01:43.030Z,91.9
2018-10-18T18:02:40.975Z,91.66
2018-10-18T18:03:39.144Z,91.75
2018-10-18T18:07:52.469Z,91.36
2018-10-18T18:08:50.099Z,91.8
2018-10-18T18:11:32.951Z,91.9
2018-10-18T18:12:37.450Z,91.61
2018-10-18T18:17:05.084Z,91.75
2018-10-18T18:23:11.460Z,91.9
2018-10-18T18:24:12.605Z,92.19
2018-10-18T18:26:57.073Z,92.29
2018-10-18T18:29:39.662Z,91.99
2018-10-18T18:30:41.478Z,92.09
2018-10-18T18:31:40.599Z,91.9
2018-10-18T18:32:41.307Z,92.47
2018-10-18T18:38:12.696Z,92.57
2018-10-18T18:43:34.913Z,92.38
2018-10-18T18:47:17.083Z,92.57
2018-10-18T18:48:19.205Z,93.05
2018-10-18T18:49:17.997Z,93.29
2018-10-18T18:50:17.853Z,93.34